Tara — XUAB3 — position and weather

sailwx.info

Track history (hours):
 
Tides and Currents Weather Stations Pressure Air Temp Water Temp Dewpoint Dewpoint Depression Visibility Wind Speed Wind Dir Waves Ship Positions

Tara

Last reported at 2015-Mar-27 07:24 UTC. Time now 2015-Mar-27 08:13 UTC.
Position N 32°35' E 031°43'.

Length 82 m; draft 7.1 m.

Type: Ship. MMSI: 515410000.

Date/timePositionNaut miles runAvg speedWind from/ knotsBaromVisibWave heightAir tempDewpointWater temp
2015-Mar-27 07:24N 32°35' E 031°43'8 9.6
2015-Mar-27 06:33N 32°41' E 031°49'10 9.8
2015-Mar-27 05:33N 32°48' E 031°58'20 9.8
2015-Mar-27 03:33N 33°01' E 032°15'1410.2
2015-Mar-27 02:11N 33°11' E 032°27'6 9.9
2015-Mar-27 01:33N 33°16' E 032°32'1010.1
2015-Mar-27 00:34N 33°23' E 032°40'10 9.9
2015-Mar-26 23:33N 33°31' E 032°47'11 9.5
2015-Mar-26 22:26N 33°39' E 032°56'8 9.1
2015-Mar-26 21:33N 33°44' E 033°03'9 9.2
2015-Mar-26 20:34N 33°50' E 033°11'9 9.2
2015-Mar-26 19:34N 33°57' E 033°19'9 9.0
2015-Mar-26 18:33N 34°02' E 033°28'9 9.1
2015-Mar-26 17:30N 34°09' E 033°36'9 9.1
2015-Mar-26 16:34N 34°15' E 033°43'9 8.9
2015-Mar-26 15:33N 34°21' E 033°51'9 9.1
2015-Mar-26 14:34N 34°27' E 033°59'  
Track history (hours):
 
Tides and Currents Weather Stations Pressure Air Temp Water Temp Dewpoint Dewpoint Depression Visibility Wind Speed Wind Dir Waves Ship Positions

Tara

Last reported at 2015-Mar-27 07:24 UTC. Time now 2015-Mar-27 08:13 UTC.
Position N 32°35' E 031°43'.

Length 82 m; draft 7.1 m.

Type: Ship. MMSI: 515410000.

Date/timePositionNaut miles runAvg speedWind from/ knotsBaromVisibWave heightAir tempDewpointWater temp
2015-Mar-27 07:24N 32°35' E 031°43'8 9.6
2015-Mar-27 06:33N 32°41' E 031°49'10 9.8
2015-Mar-27 05:33N 32°48' E 031°58'20 9.8
2015-Mar-27 03:33N 33°01' E 032°15'1410.2
2015-Mar-27 02:11N 33°11' E 032°27'6 9.9
2015-Mar-27 01:33N 33°16' E 032°32'1010.1
2015-Mar-27 00:34N 33°23' E 032°40'10 9.9
2015-Mar-26 23:33N 33°31' E 032°47'11 9.5
2015-Mar-26 22:26N 33°39' E 032°56'8 9.1
2015-Mar-26 21:33N 33°44' E 033°03'9 9.2
2015-Mar-26 20:34N 33°50' E 033°11'9 9.2
2015-Mar-26 19:34N 33°57' E 033°19'9 9.0
2015-Mar-26 18:33N 34°02' E 033°28'9 9.1
2015-Mar-26 17:30N 34°09' E 033°36'9 9.1
2015-Mar-26 16:34N 34°15' E 033°43'9 8.9
2015-Mar-26 15:33N 34°21' E 033°51'9 9.1
2015-Mar-26 14:34N 34°27' E 033°59'  

Dump ship's entire track history